Time;durP1;ratioP1;P1;durP2;ratioP2;P2;SDS_P1;SDS_P2;PMS_P1;PMS_P2;Temp;Humidity;BMP_temperature;BMP_pressure;BME280_temperature;BME280_humidity;BME280_pressure;Samples;Min_cycle;Max_cycle;Signal;HPM_P1;HPM_P2
2022/07/19 00:01:45;;;;;;;4.57;2.40;;;18.50;45.50;;;;;;5023799;28;20196;-83
2022/07/19 00:04:13;;;;;;;3.67;2.70;;;18.40;46.40;;;;;;5028553;28;20199;-84
2022/07/19 00:06:42;;;;;;;2.95;2.53;;;18.40;46.60;;;;;;5023637;28;20199;-84
2022/07/19 00:09:30;;;;;;;2.92;2.40;;;18.40;47.10;;;;;;5025661;28;20207;-83
2022/07/19 00:12:29;;;;;;;4.18;2.65;;;18.30;47.40;;;;;;5031795;28;20199;-84
2022/07/19 00:15:08;;;;;;;4.88;2.60;;;18.20;48.30;;;;;;5031250;28;20231;-83
2022/07/19 00:17:39;;;;;;;4.43;2.40;;;18.20;48.80;;;;;;5023666;28;20191;-84
2022/07/19 00:20:11;;;;;;;3.88;2.65;;;18.20;50.40;;;;;;5036034;28;20195;-84
2022/07/19 00:22:41;;;;;;;4.38;2.60;;;18.10;49.80;;;;;;5029162;28;20202;-84
2022/07/19 00:25:41;;;;;;;2.78;2.47;;;18.10;49.90;;;;;;5032128;28;20581;-85
2022/07/19 00:28:18;;;;;;;3.75;2.50;;;18.10;50.00;;;;;;5033869;28;20198;-84
2022/07/19 00:31:17;;;;;;;5.30;2.53;;;18.00;49.60;;;;;;5034607;28;20199;-83
2022/07/19 00:33:44;;;;;;;7.57;2.50;;;18.00;50.50;;;;;;5030241;28;20223;-83
2022/07/19 00:36:13;;;;;;;4.30;2.53;;;18.00;50.20;;;;;;5029406;28;20202;-83
2022/07/19 00:38:40;;;;;;;3.40;2.60;;;17.90;50.40;;;;;;5035358;28;20199;-83
2022/07/19 00:41:07;;;;;;;4.18;2.83;;;17.90;51.10;;;;;;5030069;28;20209;-83
2022/07/19 00:43:36;;;;;;;3.80;2.60;;;18.00;54.10;;;;;;5028686;28;20206;-84
2022/07/19 00:46:17;;;;;;;3.80;2.53;;;17.90;54.00;;;;;;5034870;28;20231;-83
2022/07/19 00:48:48;;;;;;;5.57;2.50;;;17.90;54.00;;;;;;5039875;28;20199;-83
2022/07/19 00:51:35;;;;;;;4.05;2.45;;;17.90;54.00;;;;;;5036668;28;20225;-83
2022/07/19 00:54:02;;;;;;;2.90;2.50;;;17.90;54.00;;;;;;5044516;28;20218;-83
2022/07/19 00:56:33;;;;;;;3.65;2.90;;;17.80;53.90;;;;;;5022955;28;20202;-83
2022/07/19 00:59:00;;;;;;;3.97;2.83;;;17.80;53.90;;;;;;5031285;28;20199;-84
2022/07/19 01:02:05;;;;;;;4.07;2.70;;;17.70;53.80;;;;;;5023538;28;20647;-83
2022/07/19 01:04:42;;;;;;;3.08;2.70;;;17.60;53.80;;;;;;5025066;28;20639;-84
2022/07/19 01:07:10;;;;;;;3.25;2.80;;;17.60;53.90;;;;;;5036713;28;20202;-85
2022/07/19 01:09:38;;;;;;;4.78;2.70;;;17.50;55.80;;;;;;5032966;28;20199;-85
2022/07/19 01:12:06;;;;;;;3.95;2.70;;;17.50;55.50;;;;;;5031964;28;20306;-84
2022/07/19 01:14:35;;;;;;;3.58;2.90;;;17.50;54.50;;;;;;5028272;28;20217;-83
2022/07/19 01:17:02;;;;;;;3.00;2.38;;;17.50;55.10;;;;;;5033141;28;20561;-84
2022/07/19 01:19:28;;;;;;;4.18;3.00;;;17.50;56.40;;;;;;5029796;28;20199;-84
2022/07/19 01:22:07;;;;;;;3.60;2.70;;;17.40;56.40;;;;;;5027800;28;20208;-84
2022/07/19 01:24:36;;;;;;;4.80;3.00;;;17.40;56.80;;;;;;5028056;28;20201;-83
2022/07/19 01:27:03;;;;;;;2.60;2.40;;;17.40;57.00;;;;;;5033720;28;20194;-84
2022/07/19 01:29:36;;;;;;;3.45;2.80;;;17.30;56.80;;;;;;5033524;28;20288;-83
2022/07/19 01:32:12;;;;;;;4.18;2.92;;;17.20;57.50;;;;;;5024876;28;20223;-83
2022/07/19 01:34:59;;;;;;;3.38;2.80;;;17.20;58.00;;;;;;5032171;28;20233;-83
2022/07/19 01:37:31;;;;;;;3.42;2.72;;;17.20;58.60;;;;;;5026096;28;20260;-84
2022/07/19 01:40:16;;;;;;;5.57;2.85;;;17.20;59.00;;;;;;5031987;28;20266;-83
2022/07/19 01:42:54;;;;;;;3.97;2.65;;;17.20;60.00;;;;;;5033803;28;20205;-86
2022/07/19 01:45:36;;;;;;;3.90;2.60;;;17.20;59.70;;;;;;5024331;28;20218;-83
2022/07/19 01:48:03;;;;;;;3.83;3.03;;;17.20;59.00;;;;;;5037363;28;20294;-84
2022/07/19 01:50:36;;;;;;;5.88;3.05;;;17.10;59.30;;;;;;5035958;28;20205;-84
2022/07/19 01:53:04;;;;;;;4.13;2.85;;;17.00;60.40;;;;;;5034496;28;20245;-83
2022/07/19 01:55:31;;;;;;;4.18;2.92;;;17.00;60.90;;;;;;5031011;28;20194;-83
2022/07/19 01:57:58;;;;;;;6.25;3.13;;;16.90;61.50;;;;;;5030544;28;20203;-83
2022/07/19 02:00:24;;;;;;;3.53;2.47;;;16.90;62.10;;;;;;5038246;28;20202;-83
2022/07/19 02:03:00;;;;;;;3.45;2.75;;;16.80;62.70;;;;;;5030426;28;20204;-84
2022/07/19 02:05:27;;;;;;;3.28;2.90;;;16.80;62.30;;;;;;5030804;28;20203;-84
2022/07/19 02:07:54;;;;;;;3.60;2.95;;;16.80;61.90;;;;;;5035659;28;20202;-83
2022/07/19 02:10:49;;;;;;;3.00;2.75;;;16.70;61.80;;;;;;5031610;28;20236;-83
2022/07/19 02:13:16;;;;;;;4.57;2.80;;;16.70;62.70;;;;;;5038264;28;20206;-83
2022/07/19 02:16:00;;;;;;;5.25;2.80;;;16.80;64.40;;;;;;5039408;28;20201;-84
2022/07/19 02:18:26;;;;;;;3.45;2.90;;;16.80;63.20;;;;;;5038105;28;20668;-84
2022/07/19 02:21:00;;;;;;;6.75;2.97;;;16.90;61.60;;;;;;5035078;28;20538;-83
2022/07/19 02:23:27;;;;;;;7.47;2.80;;;16.90;60.70;;;;;;5031940;28;20287;-83
2022/07/19 02:25:55;;;;;;;3.67;2.65;;;16.80;61.20;;;;;;5029966;28;20195;-84
2022/07/19 02:28:30;;;;;;;2.92;2.72;;;16.80;62.00;;;;;;5039541;28;20206;-84
2022/07/19 02:31:18;;;;;;;3.58;2.78;;;16.70;64.30;;;;;;5042983;28;20202;-83
2022/07/19 02:33:48;;;;;;;3.83;2.70;;;16.60;63.80;;;;;;5040075;28;20229;-83
2022/07/19 02:36:15;;;;;;;3.15;2.90;;;16.50;63.80;;;;;;5042298;28;20206;-86
2022/07/19 02:38:48;;;;;;;3.42;2.78;;;16.40;64.30;;;;;;5028535;28;20282;-86
2022/07/19 02:41:17;;;;;;;6.25;3.30;;;16.40;64.70;;;;;;5033988;28;20206;-86
2022/07/19 02:43:44;;;;;;;7.38;2.75;;;16.30;64.70;;;;;;5041136;28;20225;-85
2022/07/19 02:46:11;;;;;;;3.70;2.85;;;16.30;65.60;;;;;;5036242;28;20588;-86
2022/07/19 02:48:38;;;;;;;3.55;2.70;;;16.20;65.80;;;;;;5034071;28;20578;-86
2022/07/19 02:51:10;;;;;;;4.00;2.90;;;16.20;66.60;;;;;;5035867;28;20194;-87
2022/07/19 02:53:37;;;;;;;3.15;2.85;;;16.20;67.50;;;;;;5030203;28;20224;-87
2022/07/19 02:56:05;;;;;;;4.78;3.10;;;16.20;67.90;;;;;;5028972;28;20269;-86
2022/07/19 02:58:33;;;;;;;5.25;2.72;;;16.20;67.20;;;;;;5021786;28;20195;-86
2022/07/19 03:01:06;;;;;;;3.33;2.75;;;16.20;67.20;;;;;;5026280;28;20195;-87
2022/07/19 03:03:45;;;;;;;3.65;2.67;;;16.10;67.00;;;;;;5024723;28;20199;-86
2022/07/19 03:06:13;;;;;;;4.25;2.95;;;16.10;68.90;;;;;;5028920;28;20291;-87
2022/07/19 03:08:40;;;;;;;4.13;3.08;;;16.10;69.20;;;;;;5025484;28;20203;-86
2022/07/19 03:11:07;;;;;;;5.38;3.08;;;16.00;69.50;;;;;;5030068;28;20224;-86
2022/07/19 03:13:35;;;;;;;3.00;2.70;;;16.00;69.50;;;;;;5030845;28;20229;-89
2022/07/19 03:16:02;;;;;;;3.33;2.67;;;16.00;66.00;;;;;;5033525;28;20221;-86
2022/07/19 03:18:30;;;;;;;2.90;2.60;;;16.00;65.70;;;;;;5037986;28;20690;-87
2022/07/19 03:20:58;;;;;;;4.03;2.67;;;16.00;65.40;;;;;;5028924;28;20206;-86
2022/07/19 03:23:25;;;;;;;2.80;2.60;;;15.90;66.30;;;;;;5025362;28;20227;-87
2022/07/19 03:25:52;;;;;;;6.13;2.95;;;15.90;66.30;;;;;;5029854;28;20646;-87
2022/07/19 03:28:20;;;;;;;6.63;2.72;;;15.80;67.00;;;;;;5025355;28;20203;-88
2022/07/19 03:30:48;;;;;;;3.15;2.85;;;15.90;66.20;;;;;;5026677;28;20249;-87
2022/07/19 03:33:15;;;;;;;4.28;2.50;;;15.80;67.00;;;;;;5034012;28;20238;-87
2022/07/19 03:35:43;;;;;;;3.28;2.67;;;15.90;66.40;;;;;;5033506;28;20685;-88
2022/07/19 03:38:11;;;;;;;3.13;2.60;;;15.90;63.80;;;;;;5034048;28;20241;-86
2022/07/19 03:40:38;;;;;;;3.78;2.90;;;15.90;64.50;;;;;;5032661;28;20202;-86
2022/07/19 03:43:05;;;;;;;3.30;2.60;;;15.90;66.90;;;;;;5030354;28;20208;-87
2022/07/19 03:45:32;;;;;;;2.88;2.40;;;15.80;64.60;;;;;;5029539;28;20198;-86
2022/07/19 03:48:01;;;;;;;2.95;2.63;;;15.80;65.60;;;;;;5030634;28;21270;-86
2022/07/19 03:50:28;;;;;;;3.00;2.67;;;15.70;64.90;;;;;;5025173;28;20211;-87
2022/07/19 03:52:55;;;;;;;3.47;3.00;;;15.80;65.60;;;;;;5026947;28;20213;-87
2022/07/19 03:55:22;;;;;;;4.25;2.70;;;15.80;66.10;;;;;;5031932;28;20233;-87
2022/07/19 03:57:49;;;;;;;3.28;2.45;;;15.80;66.10;;;;;;5018114;28;20207;-87
2022/07/19 04:00:16;;;;;;;2.97;2.78;;;15.80;65.00;;;;;;5030359;28;20202;-87
2022/07/19 04:02:43;;;;;;;3.60;2.70;;;15.80;65.10;;;;;;5028661;28;20650;-86
2022/07/19 04:05:11;;;;;;;2.78;2.58;;;15.80;64.90;;;;;;5033852;28;20198;-87
2022/07/19 04:07:38;;;;;;;5.38;2.63;;;15.80;65.40;;;;;;5033316;28;20604;-87
2022/07/19 04:10:06;;;;;;;5.60;2.40;;;15.80;67.10;;;;;;5027007;28;20216;-87
2022/07/19 04:12:33;;;;;;;3.45;2.50;;;15.90;67.30;;;;;;5021309;28;20199;-87
2022/07/19 04:15:00;;;;;;;4.38;2.70;;;15.90;67.20;;;;;;5033110;28;20215;-86
2022/07/19 04:17:27;;;;;;;4.10;2.95;;;16.00;65.50;;;;;;5023314;28;20200;-87
2022/07/19 04:19:54;;;;;;;2.88;2.58;;;15.90;64.70;;;;;;5019462;28;20200;-86
2022/07/19 04:22:23;;;;;;;3.13;2.70;;;16.00;65.20;;;;;;5031563;28;20190;-85
2022/07/19 04:24:50;;;;;;;6.13;2.88;;;16.00;67.00;;;;;;5030887;28;20658;-86
2022/07/19 04:27:17;;;;;;;4.68;2.75;;;16.00;67.50;;;;;;5028494;28;20246;-86
2022/07/19 04:29:54;;;;;;;3.63;2.78;;;16.10;66.30;;;;;;5027083;28;20217;-86
2022/07/19 04:32:24;;;;;;;4.90;2.92;;;16.10;65.30;;;;;;5028633;28;20249;-85
2022/07/19 04:34:51;;;;;;;3.10;2.78;;;16.10;64.30;;;;;;5019147;28;20564;-85
2022/07/19 04:37:18;;;;;;;4.80;3.00;;;16.20;63.50;;;;;;5033056;28;20206;-85
2022/07/19 04:39:46;;;;;;;3.53;2.75;;;16.30;63.80;;;;;;5025143;28;20198;-88
2022/07/19 04:42:18;;;;;;;3.30;2.65;;;16.40;63.30;;;;;;5028179;28;20196;-86
2022/07/19 04:44:45;;;;;;;3.97;2.70;;;16.40;64.00;;;;;;5026323;28;20202;-85
2022/07/19 04:47:12;;;;;;;4.40;3.33;;;16.40;64.00;;;;;;5024874;28;20213;-86
2022/07/19 04:49:39;;;;;;;2.80;2.60;;;16.60;64.60;;;;;;5029185;28;20199;-87
2022/07/19 04:52:06;;;;;;;6.90;2.65;;;16.70;62.80;;;;;;5027498;28;20206;-87
2022/07/19 04:54:33;;;;;;;3.08;2.50;;;16.80;61.00;;;;;;5026516;28;20222;-88
2022/07/19 04:57:01;;;;;;;4.03;2.65;;;16.90;60.10;;;;;;5026393;28;20195;-85
2022/07/19 04:59:29;;;;;;;4.25;2.63;;;17.00;59.00;;;;;;5022647;28;20190;-87
2022/07/19 05:01:55;;;;;;;3.65;2.72;;;17.10;57.70;;;;;;5033818;28;20210;-86
2022/07/19 05:04:22;;;;;;;2.80;2.47;;;17.10;59.70;;;;;;5024156;28;20674;-84
2022/07/19 05:06:51;;;;;;;3.47;2.60;;;17.20;57.70;;;;;;5025605;28;20226;-84
2022/07/19 05:09:20;;;;;;;3.22;2.75;;;17.20;56.70;;;;;;5029611;28;20645;-82
2022/07/19 05:11:47;;;;;;;2.70;2.33;;;17.30;54.50;;;;;;5030199;28;20634;-82
2022/07/19 05:14:15;;;;;;;4.63;2.75;;;17.50;53.60;;;;;;5026036;28;20904;-83
2022/07/19 05:16:41;;;;;;;4.22;2.60;;;17.80;53.90;;;;;;5028006;28;20213;-84
2022/07/19 05:19:08;;;;;;;4.75;2.72;;;18.40;48.40;;;;;;5030183;28;20200;-85
2022/07/19 05:21:35;;;;;;;3.60;2.50;;;19.10;44.60;;;;;;5027384;28;20201;-88
2022/07/19 05:24:02;;;;;;;3.83;2.63;;;19.20;42.40;;;;;;5034049;28;20664;-83
2022/07/19 05:26:29;;;;;;;3.35;2.90;;;19.10;42.80;;;;;;5029090;28;20229;-83
2022/07/19 05:28:55;;;;;;;6.18;3.00;;;19.00;45.80;;;;;;5026030;28;20202;-83
2022/07/19 05:31:26;;;;;;;5.55;3.03;;;18.90;46.70;;;;;;5035586;28;20195;-83
2022/07/19 05:33:53;;;;;;;6.40;2.70;;;19.00;47.50;;;;;;5031882;28;20277;-82
2022/07/19 05:36:20;;;;;;;5.15;2.53;;;19.60;44.90;;;;;;5027424;28;20205;-83
2022/07/19 05:38:47;;;;;;;3.15;2.47;;;20.10;40.10;;;;;;5028204;28;20213;-83
2022/07/19 05:41:16;;;;;;;7.25;2.55;;;20.40;37.70;;;;;;5026394;28;20207;-83
2022/07/19 05:43:43;;;;;;;10.95;9.93;;;20.60;37.20;;;;;;5022860;28;20555;-83
2022/07/19 05:46:10;;;;;;;33.08;26.73;;;20.70;34.70;;;;;;5025167;28;20713;-84
2022/07/19 05:48:38;;;;;;;3.42;2.42;;;20.70;33.00;;;;;;5039947;28;20251;-85
2022/07/19 05:51:06;;;;;;;5.18;2.95;;;21.00;32.90;;;;;;5034756;28;20212;-84
2022/07/19 05:53:37;;;;;;;3.38;2.38;;;21.00;32.90;;;;;;5030402;28;20202;-85
2022/07/19 05:56:04;;;;;;;5.72;2.47;;;21.00;32.50;;;;;;5015023;28;20315;-84
2022/07/19 05:58:31;;;;;;;5.38;2.70;;;21.10;31.20;;;;;;5018076;28;20203;-84
2022/07/19 06:03:46;;;;;;;4.32;2.30;;;21.50;30.60;;;;;;5035436;28;20703;-82
2022/07/19 06:06:13;;;;;;;3.03;2.15;;;21.80;29.60;;;;;;5029700;28;20724;-82
2022/07/19 06:12:01;;;;;;;5.90;2.90;;;21.70;30.00;;;;;;5023613;28;20199;-82
2022/07/19 06:14:28;;;;;;;5.85;2.50;;;21.40;33.20;;;;;;5027749;28;20219;-83
2022/07/19 06:16:55;;;;;;;2.33;2.13;;;21.40;31.10;;;;;;5017116;28;20199;-82
2022/07/19 06:19:31;;;;;;;12.63;2.20;;;21.40;30.50;;;;;;5029023;28;20261;-83
2022/07/19 06:21:58;;;;;;;4.95;2.45;;;21.30;31.90;;;;;;5022974;28;20203;-83
2022/07/19 06:24:25;;;;;;;4.43;2.38;;;21.30;31.70;;;;;;5022169;28;20210;-82
2022/07/19 06:26:54;;;;;;;3.60;2.35;;;21.30;32.20;;;;;;5027919;28;20270;-82
2022/07/19 06:29:21;;;;;;;4.32;2.38;;;21.20;31.60;;;;;;5027055;28;20203;-83
2022/07/19 06:31:48;;;;;;;3.22;2.28;;;21.30;31.50;;;;;;5024195;28;20629;-82
2022/07/19 06:34:15;;;;;;;5.35;2.40;;;21.50;30.50;;;;;;5024307;28;20273;-84
2022/07/19 06:36:43;;;;;;;4.35;2.63;;;21.50;30.40;;;;;;5033154;28;20199;-85
2022/07/19 06:39:24;;;;;;;3.10;2.60;;;21.60;30.00;;;;;;5034092;28;20278;-82
2022/07/19 06:41:54;;;;;;;2.72;2.50;;;21.70;29.50;;;;;;5024189;28;20199;-82
2022/07/19 06:44:24;;;;;;;4.20;2.20;;;21.70;29.60;;;;;;5030555;28;20670;-82
2022/07/19 06:46:51;;;;;;;3.10;2.17;;;21.70;29.30;;;;;;5029683;28;20289;-83
2022/07/19 06:49:18;;;;;;;3.22;2.28;;;21.70;29.10;;;;;;5028047;28;20618;-82
2022/07/19 06:51:49;;;;;;;4.47;2.30;;;21.90;28.60;;;;;;5029007;28;20213;-81
2022/07/19 06:54:16;;;;;;;3.30;2.42;;;22.00;29.00;;;;;;5033166;28;20195;-83
2022/07/19 06:56:48;;;;;;;7.78;2.40;;;22.00;27.90;;;;;;5031340;28;20205;-82
2022/07/19 06:59:15;;;;;;;2.85;2.42;;;22.10;28.40;;;;;;5035926;28;20191;-81
2022/07/19 07:01:42;;;;;;;3.45;2.20;;;22.20;28.50;;;;;;5029688;28;20197;-82
2022/07/19 07:04:09;;;;;;;3.42;2.45;;;22.40;27.20;;;;;;5026014;28;20196;-82
2022/07/19 07:06:36;;;;;;;5.10;2.30;;;22.40;26.90;;;;;;5028276;28;20202;-81
2022/07/19 07:09:04;;;;;;;4.82;2.00;;;22.50;28.00;;;;;;5038059;28;20221;-82
2022/07/19 07:11:31;;;;;;;4.57;2.33;;;22.50;28.20;;;;;;5037703;28;20199;-81
2022/07/19 07:13:58;;;;;;;4.38;2.28;;;22.60;27.40;;;;;;5038542;28;20195;-82
2022/07/19 07:16:25;;;;;;;3.90;2.40;;;22.70;26.80;;;;;;5033017;28;20223;-81
2022/07/19 07:18:51;;;;;;;2.60;2.40;;;22.70;27.20;;;;;;5036102;28;20198;-87
2022/07/19 07:21:18;;;;;;;3.55;2.50;;;22.80;27.80;;;;;;5030090;28;20215;-82
2022/07/19 07:23:45;;;;;;;4.50;2.40;;;22.80;27.00;;;;;;5032514;28;20285;-82
2022/07/19 07:26:13;;;;;;;2.50;1.98;;;23.00;27.10;;;;;;5029298;28;20202;-82
2022/07/19 07:28:40;;;;;;;3.10;2.40;;;23.20;25.00;;;;;;5033941;28;20199;-83
2022/07/19 07:31:07;;;;;;;2.70;2.40;;;23.50;24.70;;;;;;5035169;28;20636;-82
2022/07/19 07:33:34;;;;;;;4.35;2.40;;;23.60;24.80;;;;;;5036981;28;20231;-82
2022/07/19 07:36:01;;;;;;;3.85;2.30;;;23.80;23.70;;;;;;5036652;28;20210;-81
2022/07/19 07:38:27;;;;;;;3.50;2.20;;;24.00;23.40;;;;;;5039124;28;20208;-80
2022/07/19 07:40:55;;;;;;;4.78;2.50;;;24.10;22.80;;;;;;5025153;28;20689;-81
2022/07/19 07:43:23;;;;;;;2.35;2.15;;;24.30;21.70;;;;;;5038876;28;20206;-84
2022/07/19 07:45:50;;;;;;;2.97;2.30;;;24.50;21.90;;;;;;5037741;28;20572;-83
2022/07/19 07:48:16;;;;;;;4.95;2.28;;;24.50;20.90;;;;;;5029727;28;20210;-82
2022/07/19 07:50:43;;;;;;;3.25;2.35;;;24.70;21.50;;;;;;5030825;28;20199;-82
2022/07/19 07:53:10;;;;;;;1.98;1.88;;;24.80;19.90;;;;;;5020946;28;20210;-82
2022/07/19 07:55:39;;;;;;;3.22;2.20;;;24.80;20.00;;;;;;5023232;28;20230;-86
2022/07/19 07:58:06;;;;;;;2.47;1.98;;;24.90;19.50;;;;;;5027794;28;20207;-85
2022/07/19 08:00:35;;;;;;;7.68;2.63;;;25.00;19.50;;;;;;5022969;28;20206;-83
2022/07/19 08:03:01;;;;;;;3.92;2.38;;;25.00;19.70;;;;;;5030929;28;20215;-87
2022/07/19 08:05:28;;;;;;;2.53;1.90;;;25.10;19.50;;;;;;5027311;28;20203;-84
2022/07/19 08:07:55;;;;;;;6.20;2.10;;;25.30;18.30;;;;;;5031939;28;20202;-84
2022/07/19 08:10:24;;;;;;;3.95;2.28;;;25.40;17.70;;;;;;5019261;28;20651;-83
2022/07/19 08:12:51;;;;;;;2.38;2.10;;;25.40;17.50;;;;;;5036657;28;20198;-83
2022/07/19 08:15:17;;;;;;;3.85;2.17;;;25.60;16.50;;;;;;5037761;28;20250;-83
2022/07/19 08:17:45;;;;;;;3.55;2.05;;;25.70;16.10;;;;;;5039390;28;20206;-85
2022/07/19 08:20:18;;;;;;;1.98;1.88;;;25.70;14.80;;;;;;5027280;28;20194;-85
2022/07/19 08:22:46;;;;;;;2.75;2.05;;;25.70;15.10;;;;;;5021327;28;20213;-83
2022/07/19 08:25:16;;;;;;;2.25;1.80;;;25.80;14.60;;;;;;5024835;28;20207;-83
2022/07/19 08:27:48;;;;;;;2.05;1.90;;;25.90;14.60;;;;;;5022943;28;20203;-84
2022/07/19 08:30:15;;;;;;;3.00;2.00;;;26.10;14.70;;;;;;5033281;28;20576;-80
2022/07/19 08:32:42;;;;;;;2.65;2.15;;;26.60;14.90;;;;;;5030678;28;20222;-83
2022/07/19 08:35:11;;;;;;;5.45;2.20;;;27.70;13.70;;;;;;5030345;28;20701;-86
2022/07/19 08:37:38;;;;;;;2.42;2.10;;;29.10;11.50;;;;;;5029187;28;20208;-83
2022/07/19 08:40:07;;;;;;;3.67;1.90;;;30.50;9.30;;;;;;5027478;28;20202;-84
2022/07/19 08:42:34;;;;;;;2.28;2.08;;;30.90;7.90;;;;;;5025437;28;20200;-84
2022/07/19 08:45:05;;;;;;;5.38;2.30;;;30.80;8.10;;;;;;5028414;28;20210;-83
2022/07/19 08:47:32;;;;;;;7.78;2.05;;;30.30;8.70;;;;;;5027831;28;20602;-83
2022/07/19 08:50:01;;;;;;;3.03;2.15;;;30.20;8.40;;;;;;5017597;28;20195;-84
2022/07/19 08:52:29;;;;;;;1.95;1.75;;;30.20;8.70;;;;;;5030591;28;20202;-84
2022/07/19 08:54:56;;;;;;;2.70;2.00;;;30.70;7.40;;;;;;5029959;28;20444;-84
2022/07/19 09:00:09;;;;;;;2.20;2.00;;;33.10;4.50;;;;;;5025250;28;20293;-84
2022/07/19 09:02:36;;;;;;;5.60;1.90;;;34.70;1.90;;;;;;5016256;28;20199;-84
2022/07/19 09:05:09;;;;;;;3.17;1.98;;;35.50;1.90;;;;;;5026259;28;20206;-83
2022/07/19 09:07:38;;;;;;;2.72;2.50;;;36.40;1.00;;;;;;5029524;28;20206;-83
2022/07/19 09:10:21;;;;;;;2.95;2.50;;;37.20;1.00;;;;;;5030943;28;20653;-83
2022/07/19 09:13:03;;;;;;;2.78;2.50;;;37.50;1.00;;;;;;5036764;28;20205;-83
2022/07/19 09:15:47;;;;;;;2.45;2.20;;;37.70;1.00;;;;;;5033045;28;20218;-84
2022/07/19 09:18:19;;;;;;;4.57;2.50;;;37.90;1.00;;;;;;5029033;28;20202;-84
2022/07/19 09:20:47;;;;;;;3.75;2.60;;;38.20;1.00;;;;;;5033538;28;20658;-85
2022/07/19 09:23:16;;;;;;;3.33;2.50;;;38.10;1.00;;;;;;5030939;28;20217;-83
2022/07/19 09:25:45;;;;;;;2.50;2.40;;;37.50;1.00;;;;;;5025693;28;20624;-84
2022/07/19 09:28:13;;;;;;;4.80;2.55;;;37.60;1.00;;;;;;5026160;28;20286;-84
2022/07/19 09:30:41;;;;;;;7.40;3.00;;;37.80;1.00;;;;;;5036966;28;20226;-86
2022/07/19 09:33:11;;;;;;;5.57;2.83;;;37.60;1.00;;;;;;5039294;28;20238;-83
2022/07/19 09:35:40;;;;;;;3.13;2.92;;;37.40;1.00;;;;;;5035161;28;20228;-83
2022/07/19 09:38:24;;;;;;;6.18;3.28;;;37.30;1.00;;;;;;5031549;28;20684;-84
2022/07/19 09:40:53;;;;;;;3.50;2.90;;;37.50;1.00;;;;;;5031378;28;20213;-83
2022/07/19 09:43:22;;;;;;;2.95;2.75;;;38.10;1.00;;;;;;5032741;28;20285;-85
2022/07/19 09:45:49;;;;;;;3.05;2.78;;;38.70;1.00;;;;;;5033370;28;20236;-83
2022/07/19 09:48:18;;;;;;;3.17;2.85;;;38.10;1.00;;;;;;5032710;28;20546;-84
2022/07/19 09:50:48;;;;;;;5.25;3.03;;;37.80;1.00;;;;;;5037561;28;20661;-83
2022/07/19 09:53:21;;;;;;;3.08;2.80;;;37.60;1.00;;;;;;5037606;28;20225;-83
2022/07/19 09:55:50;;;;;;;6.03;3.28;;;36.90;1.00;;;;;;5033938;28;20219;-84
2022/07/19 09:58:18;;;;;;;3.40;3.10;;;37.20;1.00;;;;;;5022661;28;20199;-84
2022/07/19 10:00:45;;;;;;;4.18;3.15;;;37.80;1.00;;;;;;5031405;28;20695;-84
2022/07/19 10:03:14;;;;;;;3.40;3.10;;;38.40;1.00;;;;;;5033395;28;20248;-86
2022/07/19 10:05:42;;;;;;;3.72;3.42;;;38.40;1.00;;;;;;5031364;28;20221;-90
2022/07/19 10:08:08;;;;;;;4.47;3.30;;;38.40;1.00;;;;;;5016646;28;20206;-86
2022/07/19 10:10:37;;;;;;;6.78;3.88;;;38.10;1.00;;;;;;5024867;28;20201;-87
2022/07/19 10:13:05;;;;;;;3.90;3.50;;;38.30;1.00;;;;;;5020261;28;20202;-87
2022/07/19 10:15:37;;;;;;;3.95;3.42;;;38.30;1.00;;;;;;5023775;28;20328;-87
2022/07/19 10:18:11;;;;;;;4.10;3.65;;;38.40;1.00;;;;;;5021771;28;20205;-86
2022/07/19 10:20:38;;;;;;;3.67;3.40;;;38.30;1.00;;;;;;5023354;28;20209;-86
2022/07/19 10:23:06;;;;;;;5.18;3.80;;;38.20;1.00;;;;;;5026398;28;20199;-87
2022/07/19 10:25:46;;;;;;;4.53;3.92;;;39.10;1.00;;;;;;5024918;28;20579;-86
2022/07/19 10:28:32;;;;;;;5.90;4.20;;;38.90;1.00;;;;;;5020109;28;20198;-86
2022/07/19 10:30:59;;;;;;;3.97;3.50;;;38.60;1.00;;;;;;5028775;28;20539;-89
2022/07/19 10:33:29;;;;;;;4.13;3.70;;;38.30;1.00;;;;;;5023203;28;20233;-89
2022/07/19 10:35:56;;;;;;;3.50;3.20;;;38.00;1.00;;;;;;5028332;28;20714;-86
2022/07/19 10:38:22;;;;;;;3.17;2.97;;;37.50;1.00;;;;;;5031924;28;20205;-87
2022/07/19 10:40:58;;;;;;;4.00;3.00;;;37.30;1.00;;;;;;5036960;28;20198;-86
2022/07/19 10:43:27;;;;;;;3.30;3.10;;;37.70;1.00;;;;;;5035473;28;20194;-85
2022/07/19 10:46:11;;;;;;;3.42;3.10;;;37.60;1.00;;;;;;5037220;28;20205;-84
2022/07/19 10:48:40;;;;;;;3.85;3.38;;;37.30;1.00;;;;;;5045550;28;20208;-83
2022/07/19 10:51:07;;;;;;;4.00;3.28;;;36.90;1.00;;;;;;5037568;28;20195;-83
2022/07/19 10:53:59;;;;;;;3.58;3.28;;;36.90;1.00;;;;;;5040000;28;20194;-84
2022/07/19 10:56:49;;;;;;;6.75;3.20;;;37.00;1.00;;;;;;5038517;28;20214;-84
2022/07/19 10:59:29;;;;;;;4.72;3.22;;;37.50;1.00;;;;;;5039901;28;20208;-84
2022/07/19 11:02:00;;;;;;;3.63;3.25;;;37.60;1.00;;;;;;5042441;28;20204;-84
2022/07/19 11:04:29;;;;;;;4.07;3.30;;;37.40;1.00;;;;;;5036080;28;20241;-83
2022/07/19 11:07:19;;;;;;;3.60;3.30;;;37.20;1.00;;;;;;5027358;28;20206;-84
2022/07/19 11:09:50;;;;;;;4.18;3.22;;;37.40;1.00;;;;;;5020621;28;20618;-83
2022/07/19 11:12:24;;;;;;;3.38;3.00;;;36.80;1.00;;;;;;5020022;28;20646;-84
2022/07/19 11:14:51;;;;;;;5.97;2.97;;;36.30;1.00;;;;;;5027089;28;20582;-84
2022/07/19 11:17:17;;;;;;;2.72;2.53;;;36.00;1.00;;;;;;5026762;28;20217;-84
2022/07/19 11:19:58;;;;;;;5.32;3.30;;;34.80;1.00;;;;;;5023622;28;20215;-84
2022/07/19 11:22:25;;;;;;;3.50;3.20;;;34.60;1.00;;;;;;5027312;28;20206;-83
2022/07/19 11:24:51;;;;;;;6.53;3.33;;;34.30;1.70;;;;;;5031469;28;20685;-83
2022/07/19 11:27:18;;;;;;;4.47;3.00;;;33.70;1.00;;;;;;5028410;28;20652;-83
2022/07/19 11:29:56;;;;;;;3.53;3.22;;;33.50;1.00;;;;;;5027930;28;20212;-83
2022/07/19 11:32:23;;;;;;;3.78;3.10;;;33.10;1.90;;;;;;5024627;28;20248;-83
2022/07/19 11:34:55;;;;;;;3.40;2.90;;;33.00;1.70;;;;;;5020526;28;20202;-83
2022/07/19 11:37:24;;;;;;;3.65;3.30;;;33.00;2.80;;;;;;5028347;28;20229;-85
2022/07/19 11:39:51;;;;;;;5.60;3.92;;;32.90;2.90;;;;;;5018867;28;20301;-84
2022/07/19 11:42:31;;;;;;;4.65;3.40;;;32.90;1.50;;;;;;5028349;28;20206;-83
2022/07/19 11:45:07;;;;;;;3.55;3.10;;;33.00;1.20;;;;;;5018193;28;20202;-84
2022/07/19 11:47:34;;;;;;;4.47;3.55;;;33.00;2.00;;;;;;5021397;28;20214;-84
2022/07/19 11:50:05;;;;;;;4.93;3.65;;;33.00;3.10;;;;;;5034803;28;20650;-83
2022/07/19 11:52:52;;;;;;;4.65;3.13;;;33.00;1.00;;;;;;5027450;28;20649;-83
2022/07/19 11:55:21;;;;;;;8.05;3.75;;;32.80;1.00;;;;;;5021046;28;20776;-83
2022/07/19 11:57:49;;;;;;;5.72;3.75;;;32.90;1.70;;;;;;5020311;28;20460;-83
2022/07/19 12:00:19;;;;;;;4.03;3.63;;;32.90;1.20;;;;;;5022088;28;20206;-84
2022/07/19 12:02:53;;;;;;;4.82;4.15;;;32.90;1.50;;;;;;5021570;28;20203;-83
2022/07/19 12:05:20;;;;;;;4.03;3.60;;;32.90;1.40;;;;;;5025345;28;20570;-83
2022/07/19 12:07:47;;;;;;;4.20;3.80;;;32.80;1.80;;;;;;5028480;28;20553;-83
2022/07/19 12:10:36;;;;;;;5.85;4.68;;;32.80;2.60;;;;;;5029881;28;20241;-83
2022/07/19 12:13:03;;;;;;;7.63;4.07;;;32.80;1.90;;;;;;5029148;28;20220;-82
2022/07/19 12:15:45;;;;;;;4.68;3.58;;;32.80;1.00;;;;;;5021935;28;20205;-83
2022/07/19 12:18:12;;;;;;;6.88;4.43;;;32.80;1.90;;;;;;5026388;28;20298;-83
2022/07/19 12:20:39;;;;;;;5.10;4.60;;;32.70;2.10;;;;;;5019653;28;20209;-83
2022/07/19 12:23:15;;;;;;;6.47;5.03;;;32.70;1.30;;;;;;5023831;28;20205;-83
2022/07/19 12:25:42;;;;;;;6.13;4.25;;;32.70;2.20;;;;;;5032944;28;20664;-83
2022/07/19 12:28:09;;;;;;;5.35;4.68;;;32.70;3.00;;;;;;5027866;28;20207;-82
2022/07/19 12:30:37;;;;;;;5.55;4.78;;;32.60;3.30;;;;;;5020922;28;20646;-83
2022/07/19 12:33:10;;;;;;;5.70;4.88;;;32.70;3.10;;;;;;5018368;28;20227;-84
2022/07/19 12:35:45;;;;;;;6.57;4.45;;;32.80;3.30;;;;;;5027789;28;20194;-88
2022/07/19 12:38:12;;;;;;;5.32;4.82;;;32.80;3.00;;;;;;5019629;28;20208;-84
2022/07/19 12:40:40;;;;;;;9.00;4.85;;;32.70;2.90;;;;;;5019703;28;20202;-82
2022/07/19 12:43:09;;;;;;;5.13;4.13;;;32.60;3.50;;;;;;5029035;28;20195;-84
2022/07/19 12:45:41;;;;;;;5.85;5.35;;;32.60;3.50;;;;;;5022074;28;20198;-83
2022/07/19 12:48:10;;;;;;;7.00;5.38;;;32.60;3.30;;;;;;5025890;28;20197;-86
2022/07/19 12:50:40;;;;;;;7.72;6.20;;;32.50;3.10;;;;;;5019523;28;20931;-82
2022/07/19 12:53:10;;;;;;;7.80;6.00;;;32.40;3.10;;;;;;5025870;28;20273;-83
2022/07/19 12:55:38;;;;;;;11.70;6.05;;;32.40;3.70;;;;;;5025372;28;20201;-83
2022/07/19 12:58:14;;;;;;;6.10;5.50;;;32.30;3.20;;;;;;5023395;28;20739;-83
2022/07/19 13:00:42;;;;;;;8.70;6.40;;;32.40;4.00;;;;;;5025250;28;20209;-82
2022/07/19 13:03:11;;;;;;;8.40;5.47;;;32.40;3.30;;;;;;5019406;28;20202;-83
2022/07/19 13:05:37;;;;;;;6.10;5.35;;;32.30;3.60;;;;;;5021621;28;20666;-82
2022/07/19 13:08:05;;;;;;;7.38;5.38;;;32.30;4.40;;;;;;5021502;28;20214;-84
2022/07/19 13:10:32;;;;;;;6.57;5.30;;;32.30;4.40;;;;;;5035157;28;20258;-82
2022/07/19 13:12:59;;;;;;;10.27;5.55;;;32.50;4.70;;;;;;5033789;28;20229;-82
2022/07/19 13:15:26;;;;;;;7.80;5.57;;;32.50;4.20;;;;;;5051059;28;20198;-84